Other Surface Observations
Issued by NWS Great Falls, MT

Home | Current Version | Previous Version | Text Only | Print | Product List | Glossary On
Versions: 1 2 3 4 5 6 7 8 9 10 11 12 13 14 15 16 17 18 19 20 21 22 23 24 25 26 27 28 29 30 31 32 33 34 35 36 37 38 39 40 41 42 43 44 45 46 47 48 49 50
719
SXUS55 KTFX 140644
OSOTFX
AREA AWOS OBSERVATIONS
NATIONAL WEATHER SERVICE GREAT FALLS MT
1144 PM MST SAT FEB 13 2016

METAR KPWD 140645Z AUTO 28008KT 8SM M01/M02 A2979 RMK PLENTYWOOD
METAR KPO1 140645Z AUTO 18003KT 10SM 00/M02 A2985 RMK POPLAR
METAR K1S3 140645Z AUTO 25009KT 10SM 03/M04 A2994 RMK FORSYTH
METAR KS71 140645Z AUTO 00000KT 10SM M03/M06 A2988 RMK CHINOOK
METAR K38S 140645Z AUTO 36003KT 10SM 01/M05 A3001 RMK DEER LODGE
METAR K3U3 140645Z AUTO 16006KT 10SM 01/M06 A3000 RMK ANACONDA
METAR K6S5 140645Z AUTO 15013KT 10SM 03/M02 A3006 RMK HAMILTON



USA.gov is the U.S. government's official web portal to all federal, state and local government web resources and services.